createdAt,value
2018-11-20T00:00:56.420Z,80.45
2018-11-20T00:04:38.730Z,80.00
2018-11-20T00:08:21.019Z,79.70
2018-11-20T00:11:55.601Z,79.60
2018-11-20T00:15:30.274Z,78.80
2018-11-20T00:19:05.376Z,78.11
2018-11-20T00:22:40.100Z,78.55
2018-11-20T00:26:03.504Z,76.52
2018-11-20T00:29:45.715Z,77.42
2018-11-20T00:33:21.614Z,77.91
2018-11-20T00:36:55.265Z,78.15
2018-11-20T00:40:24.681Z,77.70
2018-11-20T00:44:07.060Z,77.75
2018-11-20T00:47:49.331Z,77.02
2018-11-20T00:51:31.280Z,78.15
2018-11-20T00:54:53.286Z,78.66
2018-11-20T00:58:35.513Z,78.38
2018-11-20T01:02:00.256Z,78.76
2018-11-20T01:05:37.461Z,78.90
2018-11-20T01:09:11.875Z,78.64
2018-11-20T01:12:46.185Z,78.76
2018-11-20T01:16:20.696Z,78.68
2018-11-20T01:19:55.086Z,78.84
2018-11-20T01:23:29.394Z,78.49
2018-11-20T01:27:07.450Z,79.00
2018-11-20T01:30:42.584Z,79.05
2018-11-20T01:34:12.629Z,79.02
2018-11-20T01:37:27.685Z,79.62
2018-11-20T01:41:09.941Z,78.03
2018-11-20T01:44:52.171Z,78.03
2018-11-20T01:48:26.616Z,78.35
2018-11-20T01:51:48.520Z,77.59
2018-11-20T01:55:30.760Z,78.00
2018-11-20T01:58:53.318Z,77.60
2018-11-20T02:02:35.610Z,77.83
2018-11-20T02:05:59.024Z,77.57
2018-11-20T02:09:33.270Z,78.31
2018-11-20T02:12:56.586Z,79.80
2018-11-20T02:16:13.841Z,80.64
2018-11-20T02:19:56.156Z,80.75
2018-11-20T02:23:37.410Z,82.25
2018-11-20T02:27:12.002Z,83.44
2018-11-20T02:30:46.755Z,84.50
2018-11-20T02:34:24.770Z,85.26
2018-11-20T02:37:48.157Z,85.70
2018-11-20T02:41:23.349Z,86.38
2018-11-20T02:44:46.725Z,87.61
2018-11-20T02:48:29.244Z,87.72
2018-11-20T02:51:52.684Z,87.60
2018-11-20T02:55:35.055Z,88.36
2018-11-20T02:59:09.372Z,86.92
2018-11-20T03:06:01.893Z,86.37
2018-11-20T03:09:33.307Z,87.26
2018-11-20T03:13:17.594Z,86.61
2018-11-20T03:16:50.756Z,86.31
2018-11-20T03:20:25.802Z,86.31
2018-11-20T03:23:53.895Z,86.29
2018-11-20T03:27:28.162Z,85.74
2018-11-20T03:31:02.770Z,85.66
2018-11-20T03:34:26.460Z,84.50
2018-11-20T03:37:49.977Z,85.31
2018-11-20T03:41:32.308Z,86.58
2018-11-20T03:45:14.705Z,85.74
2018-11-20T03:48:56.987Z,85.11
2018-11-20T03:52:39.285Z,84.99
2018-11-20T03:56:14.495Z,85.31
2018-11-20T03:59:51.765Z,86.16
2018-11-20T04:03:26.997Z,86.34
2018-11-20T04:07:01.556Z,86.40
2018-11-20T04:10:25.643Z,85.99
2018-11-20T04:14:07.892Z,86.24
2018-11-20T04:17:22.094Z,85.65
2018-11-20T04:21:04.362Z,84.42
2018-11-20T04:24:39.032Z,84.75
2018-11-20T04:28:13.757Z,82.92
2018-11-20T04:32:14.905Z,83.81
2018-11-20T04:35:49.160Z,83.14
2018-11-20T04:39:26.750Z,82.86
2018-11-20T04:42:50.234Z,82.95
2018-11-20T04:46:32.633Z,82.44
2018-11-20T04:50:14.960Z,81.99
2018-11-20T04:53:34.022Z,81.86
2018-11-20T04:57:09.231Z,81.16
2018-11-20T05:00:51.475Z,81.06
2018-11-20T05:04:14.878Z,80.98
2018-11-20T05:07:36.717Z,80.79
2018-11-20T05:11:18.976Z,80.74
2018-11-20T05:14:48.525Z,81.51
2018-11-20T05:18:30.882Z,80.43
2018-11-20T05:22:13.141Z,81.15
2018-11-20T05:25:39.490Z,81.59
2018-11-20T05:29:21.741Z,81.70
2018-11-20T05:32:45.193Z,82.25
2018-11-20T05:36:27.442Z,81.76
2018-11-20T05:39:50.770Z,82.38
2018-11-20T05:43:14.143Z,82.03
2018-11-20T05:46:55.795Z,82.41
2018-11-20T05:50:37.965Z,81.57
2018-11-20T05:54:14.092Z,82.37
2018-11-20T05:57:37.470Z,81.89
2018-11-20T06:01:19.676Z,81.96
2018-11-20T06:04:43.047Z,81.48
2018-11-20T06:08:06.387Z,81.40
2018-11-20T06:11:32.767Z,81.99
2018-11-20T06:15:15.139Z,82.12
2018-11-20T06:18:36.868Z,82.47
2018-11-20T06:22:01.112Z,82.86
2018-11-20T06:25:43.427Z,83.15
2018-11-20T06:29:09.616Z,83.23
2018-11-20T06:32:36.932Z,83.28
2018-11-20T06:36:06.343Z,82.99
2018-11-20T06:39:48.656Z,83.27
2018-11-20T06:43:30.923Z,82.98
2018-11-20T06:46:57.316Z,82.57
2018-11-20T06:50:29.547Z,83.72
2018-11-20T06:54:04.081Z,83.24
2018-11-20T06:57:41.521Z,83.25
2018-11-20T07:01:14.887Z,83.17
2018-11-20T07:04:50.106Z,83.47
2018-11-20T07:08:32.415Z,82.92
2018-11-20T07:11:56.293Z,82.88
2018-11-20T07:15:31.393Z,83.41
2018-11-20T07:19:05.546Z,82.45
2018-11-20T07:22:37.760Z,82.16
2018-11-20T07:26:19.967Z,82.61
2018-11-20T07:29:41.806Z,82.60
2018-11-20T07:32:59.083Z,82.18
2018-11-20T07:36:41.441Z,81.17
2018-11-20T07:40:13.293Z,81.57
2018-11-20T07:43:39.394Z,81.84
2018-11-20T07:47:13.296Z,81.70
2018-11-20T07:50:35.272Z,81.12
2018-11-20T07:53:59.173Z,81.83
2018-11-20T07:57:33.807Z,82.38
2018-11-20T08:01:08.556Z,81.88
2018-11-20T08:04:45.988Z,82.45
2018-11-20T08:08:20.970Z,81.33
2018-11-20T08:11:55.341Z,82.41
2018-11-20T08:15:30.398Z,82.64
2018-11-20T08:18:56.493Z,82.41
2018-11-20T08:22:38.761Z,82.95
2018-11-20T08:26:14.549Z,82.51
2018-11-20T08:29:56.627Z,82.87
2018-11-20T08:33:38.873Z,82.28
2018-11-20T08:37:05.826Z,82.63
2018-11-20T08:40:43.538Z,81.63
2018-11-20T08:44:15.796Z,82.24
2018-11-20T08:47:39.323Z,82.50
2018-11-20T08:51:02.608Z,82.08
2018-11-20T08:54:26.539Z,82.47
2018-11-20T09:01:03.600Z,82.41
2018-11-20T09:04:27.499Z,82.97
2018-11-20T09:07:49.327Z,83.29
2018-11-20T09:11:31.568Z,83.30
2018-11-20T09:15:13.797Z,83.57
2018-11-20T09:18:37.200Z,83.47
2018-11-20T09:22:00.582Z,82.70
2018-11-20T09:25:35.429Z,82.89
2018-11-20T09:29:09.666Z,82.99
2018-11-20T09:32:33.083Z,83.06
2018-11-20T09:35:56.702Z,83.12
2018-11-20T09:39:39.147Z,81.65
2018-11-20T09:43:04.676Z,81.99
2018-11-20T09:46:34.924Z,81.79
2018-11-20T09:50:09.226Z,82.21
2018-11-20T09:53:44.016Z,82.73
2018-11-20T09:57:19.168Z,82.44
2018-11-20T10:00:53.963Z,82.10
2018-11-20T10:04:31.341Z,82.03
2018-11-20T10:08:07.198Z,81.31
2018-11-20T10:11:41.912Z,81.21
2018-11-20T10:14:57.220Z,81.09
2018-11-20T10:18:31.708Z,81.57
2018-11-20T10:22:06.959Z,81.41
2018-11-20T10:25:30.381Z,81.44
2018-11-20T10:29:12.507Z,81.02
2018-11-20T10:32:47.513Z,81.59
2018-11-20T10:36:22.139Z,81.34
2018-11-20T10:39:56.898Z,81.49
2018-11-20T10:43:32.006Z,81.25
2018-11-20T10:47:07.051Z,79.84
2018-11-20T10:50:42.103Z,80.44
2018-11-20T10:54:22.645Z,80.27
2018-11-20T10:57:57.191Z,79.57
2018-11-20T11:01:31.561Z,80.11
2018-11-20T11:05:06.360Z,80.83
2018-11-20T11:08:29.723Z,80.04
2018-11-20T11:12:12.116Z,80.49
2018-11-20T11:15:33.646Z,81.35
2018-11-20T11:18:57.021Z,79.92
2018-11-20T11:22:39.290Z,79.77
2018-11-20T11:26:19.777Z,80.70
2018-11-20T11:29:54.880Z,80.13
2018-11-20T11:33:35.684Z,79.92
2018-11-20T11:37:03.089Z,80.25
2018-11-20T11:40:36.820Z,79.99
2018-11-20T11:44:00.149Z,79.79
2018-11-20T11:47:42.443Z,80.35
2018-11-20T11:51:18.475Z,80.47
2018-11-20T11:54:44.408Z,81.02
2018-11-20T11:58:19.163Z,80.85
2018-11-20T12:05:27.920Z,81.05
2018-11-20T12:09:09.530Z,80.25
2018-11-20T12:12:44.111Z,80.65
2018-11-20T12:16:21.599Z,81.18
2018-11-20T12:19:57.218Z,81.41
2018-11-20T12:23:31.841Z,80.81
2018-11-20T12:27:07.481Z,81.10
2018-11-20T12:30:32.657Z,80.65
2018-11-20T12:34:05.184Z,80.14
2018-11-20T12:37:42.607Z,81.27
2018-11-20T12:41:14.784Z,80.69
2018-11-20T12:44:49.568Z,81.21
2018-11-20T12:48:24.714Z,81.58
2018-11-20T12:52:01.947Z,81.51
2018-11-20T12:55:40.008Z,82.09
2018-11-20T12:59:15.075Z,81.45
2018-11-20T13:02:49.505Z,81.29
2018-11-20T13:06:20.203Z,81.06
2018-11-20T13:09:43.699Z,81.53
2018-11-20T13:13:25.953Z,81.80
2018-11-20T13:17:09.249Z,82.01
2018-11-20T13:20:42.656Z,81.62
2018-11-20T13:24:09.784Z,81.58
2018-11-20T13:27:50.899Z,81.87
2018-11-20T13:31:33.211Z,82.17
2018-11-20T13:34:57.726Z,81.54
2018-11-20T13:38:39.659Z,82.57
2018-11-20T13:41:51.955Z,82.09
2018-11-20T13:45:34.105Z,82.20
2018-11-20T13:48:57.416Z,83.39
2018-11-20T13:52:29.494Z,85.33
2018-11-20T13:56:10.566Z,86.56
2018-11-20T13:59:36.542Z,88.36
2018-11-20T14:02:59.943Z,89.08
2018-11-20T14:06:42.149Z,89.93
2018-11-20T14:10:17.073Z,90.12
2018-11-20T14:13:40.458Z,91.21
2018-11-20T14:17:22.686Z,92.48
2018-11-20T14:24:47.484Z,93.62
2018-11-20T14:28:29.877Z,94.38
2018-11-20T14:31:51.725Z,95.31
2018-11-20T14:35:33.960Z,95.42
2018-11-20T14:38:57.582Z,95.67
2018-11-20T14:42:39.845Z,96.18
2018-11-20T14:46:14.910Z,96.77
2018-11-20T14:49:49.255Z,97.15
2018-11-20T14:53:29.884Z,97.45
2018-11-20T14:56:53.402Z,97.18
2018-11-20T15:00:35.754Z,97.95
2018-11-20T15:04:14.224Z,98.02
2018-11-20T15:07:43.624Z,98.32
2018-11-20T15:11:07.009Z,98.97
2018-11-20T15:14:49.415Z,98.87
2018-11-20T15:18:31.746Z,98.99
2018-11-20T15:21:55.131Z,99.40
2018-11-20T15:25:37.384Z,99.44
2018-11-20T15:29:12.466Z,100.02
2018-11-20T15:32:54.739Z,100.04
2018-11-20T15:36:29.106Z,100.29
2018-11-20T15:40:03.727Z,100.35
2018-11-20T15:43:22.727Z,100.53
2018-11-20T15:49:22.146Z,100.81
2018-11-20T15:52:47.866Z,100.80
2018-11-20T15:56:22.389Z,100.98
2018-11-20T16:00:03.109Z,101.01
2018-11-20T16:03:25.663Z,101.05
2018-11-20T16:07:07.494Z,101.13
2018-11-20T16:13:59.706Z,101.30
2018-11-20T16:17:41.532Z,101.34
2018-11-20T16:21:19.667Z,101.51
2018-11-20T16:24:43.681Z,101.62
2018-11-20T16:28:18.374Z,101.43
2018-11-20T16:31:53.575Z,101.62
2018-11-20T16:35:27.932Z,101.30
2018-11-20T16:42:28.118Z,100.84
2018-11-20T16:45:50.726Z,100.46
2018-11-20T16:52:52.436Z,99.21
2018-11-20T16:56:20.695Z,98.65
2018-11-20T16:59:56.115Z,98.30
2018-11-20T17:03:29.533Z,98.37
2018-11-20T17:06:50.628Z,98.73
2018-11-20T17:10:32.473Z,98.43
2018-11-20T17:14:04.236Z,98.41
2018-11-20T17:17:36.041Z,98.29
2018-11-20T17:21:11.062Z,97.70
2018-11-20T17:24:33.602Z,97.19
2018-11-20T17:28:15.595Z,96.91
2018-11-20T17:31:39.190Z,96.21
2018-11-20T17:35:13.477Z,95.92
2018-11-20T17:38:48.064Z,95.89
2018-11-20T17:42:00.530Z,95.47
2018-11-20T17:45:42.439Z,95.64
2018-11-20T17:49:15.346Z,95.68
2018-11-20T17:52:50.247Z,95.38
2018-11-20T17:56:25.076Z,95.09
2018-11-20T17:59:49.925Z,95.52
2018-11-20T18:03:31.788Z,95.18
2018-11-20T18:06:58.677Z,95.04
2018-11-20T18:10:33.112Z,94.30
2018-11-20T18:14:10.832Z,94.64
2018-11-20T18:17:38.578Z,94.31
2018-11-20T18:21:03.938Z,94.06
2018-11-20T18:24:45.832Z,93.90
2018-11-20T18:28:27.682Z,93.81
2018-11-20T18:32:08.137Z,94.14
2018-11-20T18:35:30.740Z,94.12
2018-11-20T18:39:06.223Z,94.09
2018-11-20T18:42:40.005Z,94.28
2018-11-20T18:46:14.469Z,94.43
2018-11-20T18:49:48.726Z,94.28
2018-11-20T18:53:10.213Z,94.48
2018-11-20T18:56:52.202Z,94.80
2018-11-20T19:00:20.082Z,95.01
2018-11-20T19:03:42.721Z,94.86
2018-11-20T19:07:24.629Z,94.71
2018-11-20T19:10:59.096Z,94.54
2018-11-20T19:14:25.742Z,94.80
2018-11-20T19:21:07.194Z,94.36
2018-11-20T19:24:49.038Z,94.39
2018-11-20T19:28:25.489Z,94.03
2018-11-20T19:32:00.728Z,93.54
2018-11-20T19:35:38.231Z,93.89
2018-11-20T19:39:00.881Z,94.18
2018-11-20T19:42:44.072Z,93.86
2018-11-20T19:46:17.976Z,93.94
2018-11-20T19:49:40.792Z,94.34
2018-11-20T19:53:22.638Z,94.38
2018-11-20T19:56:57.552Z,94.24
2018-11-20T20:00:25.915Z,93.88
2018-11-20T20:03:38.287Z,93.97
2018-11-20T20:07:00.950Z,94.12
2018-11-20T20:10:24.468Z,93.95
2018-11-20T20:13:45.292Z,94.17
2018-11-20T20:17:27.123Z,93.87
2018-11-20T20:20:48.240Z,93.97
2018-11-20T20:24:18.999Z,93.93
2018-11-20T20:28:00.964Z,94.11
2018-11-20T20:31:42.904Z,94.30
2018-11-20T20:35:05.431Z,94.39
2018-11-20T20:38:28.073Z,93.96
2018-11-20T20:41:58.140Z,93.69
2018-11-20T20:45:21.024Z,94.32
2018-11-20T20:49:02.854Z,94.44
2018-11-20T20:52:40.575Z,94.54
2018-11-20T20:56:22.464Z,94.59
2018-11-20T21:00:04.348Z,93.94
2018-11-20T21:03:46.228Z,94.39
2018-11-20T21:07:24.252Z,94.67
2018-11-20T21:10:46.687Z,94.48
2018-11-20T21:14:04.003Z,94.42
2018-11-20T21:17:45.964Z,94.30
2018-11-20T21:21:27.825Z,94.40
2018-11-20T21:25:02.770Z,93.98
2018-11-20T21:28:42.695Z,94.08
2018-11-20T21:32:15.619Z,94.64
2018-11-20T21:35:50.033Z,94.03
2018-11-20T21:39:25.057Z,94.36
2018-11-20T21:43:02.639Z,94.35
2018-11-20T21:46:37.140Z,93.29
2018-11-20T21:53:20.447Z,94.14
2018-11-20T21:56:32.654Z,94.38
2018-11-20T21:59:58.885Z,94.01
2018-11-20T22:03:34.044Z,94.22
2018-11-20T22:07:08.438Z,94.18
2018-11-20T22:10:40.224Z,93.87
2018-11-20T22:14:14.555Z,94.22
2018-11-20T22:17:37.175Z,93.71
2018-11-20T22:21:19.060Z,94.23
2018-11-20T22:25:00.881Z,93.84
2018-11-20T22:28:35.823Z,94.21
2018-11-20T22:31:58.375Z,94.12
2018-11-20T22:35:40.251Z,94.05
2018-11-20T22:39:10.045Z,94.48
2018-11-20T22:42:31.315Z,94.22
2018-11-20T22:46:13.175Z,93.64
2018-11-20T22:49:47.703Z,93.84
2018-11-20T22:53:28.653Z,94.02
2018-11-20T22:56:55.093Z,94.04
2018-11-20T23:00:29.541Z,94.28
2018-11-20T23:03:52.164Z,94.18
2018-11-20T23:07:14.774Z,94.07
2018-11-20T23:10:32.746Z,94.29
2018-11-20T23:13:36.335Z,94.12
2018-11-20T23:16:59.170Z,94.25
2018-11-20T23:20:21.971Z,94.44
2018-11-20T23:23:25.544Z,94.86
2018-11-20T23:26:29.048Z,94.83
2018-11-20T23:29:51.887Z,94.17
2018-11-20T23:33:14.713Z,94.30
2018-11-20T23:36:30.583Z,94.41
2018-11-20T23:39:45.924Z,93.93
2018-11-20T23:43:01.580Z,94.44
2018-11-20T23:46:17.705Z,94.21
2018-11-20T23:49:33.151Z,94.51
2018-11-20T23:52:36.852Z,94.31
2018-11-20T23:55:40.353Z,94.75
2018-11-20T23:59:03.224Z,94.41
